sensor_id;sensor_type;location;lat;lon;timestamp;P1;durP1;ratioP1;P2;durP2;ratioP2
55210;SDS011;41082;52.822;6.666;2023-05-20T00:02:01;10.57;;;4.00;;
55210;SDS011;41082;52.822;6.666;2023-05-20T00:04:26;9.38;;;3.70;;
55210;SDS011;41082;52.822;6.666;2023-05-20T00:06:52;6.35;;;3.03;;
55210;SDS011;41082;52.822;6.666;2023-05-20T00:09:18;9.27;;;3.88;;
55210;SDS011;41082;52.822;6.666;2023-05-20T00:11:44;12.52;;;4.45;;
55210;SDS011;41082;52.822;6.666;2023-05-20T00:14:10;9.52;;;3.65;;
55210;SDS011;41082;52.822;6.666;2023-05-20T00:16:36;12.70;;;4.15;;
55210;SDS011;41082;52.822;6.666;2023-05-20T00:19:02;8.95;;;3.20;;
55210;SDS011;41082;52.822;6.666;2023-05-20T00:21:28;8.90;;;4.18;;
55210;SDS011;41082;52.822;6.666;2023-05-20T00:23:54;10.25;;;4.15;;
55210;SDS011;41082;52.822;6.666;2023-05-20T00:26:20;11.50;;;3.47;;
55210;SDS011;41082;52.822;6.666;2023-05-20T00:28:46;10.32;;;3.50;;
55210;SDS011;41082;52.822;6.666;2023-05-20T00:31:11;12.50;;;4.13;;
55210;SDS011;41082;52.822;6.666;2023-05-20T00:33:37;9.68;;;3.78;;
55210;SDS011;41082;52.822;6.666;2023-05-20T00:36:03;10.73;;;4.00;;
55210;SDS011;41082;52.822;6.666;2023-05-20T00:38:29;7.88;;;3.88;;
55210;SDS011;41082;52.822;6.666;2023-05-20T00:40:54;11.85;;;3.90;;
55210;SDS011;41082;52.822;6.666;2023-05-20T00:43:20;9.25;;;4.18;;
55210;SDS011;41082;52.822;6.666;2023-05-20T00:45:46;6.63;;;3.78;;
55210;SDS011;41082;52.822;6.666;2023-05-20T00:48:12;8.10;;;4.07;;
55210;SDS011;41082;52.822;6.666;2023-05-20T00:50:38;7.07;;;3.85;;
55210;SDS011;41082;52.822;6.666;2023-05-20T00:53:05;9.80;;;3.95;;
55210;SDS011;41082;52.822;6.666;2023-05-20T00:55:31;6.38;;;3.90;;
55210;SDS011;41082;52.822;6.666;2023-05-20T00:57:56;9.32;;;3.92;;
55210;SDS011;41082;52.822;6.666;2023-05-20T01:00:22;8.43;;;3.88;;
55210;SDS011;41082;52.822;6.666;2023-05-20T01:02:48;6.45;;;3.70;;
55210;SDS011;41082;52.822;6.666;2023-05-20T01:05:14;7.45;;;3.20;;
55210;SDS011;41082;52.822;6.666;2023-05-20T01:07:39;8.15;;;3.67;;
55210;SDS011;41082;52.822;6.666;2023-05-20T01:10:05;7.85;;;3.95;;
55210;SDS011;41082;52.822;6.666;2023-05-20T01:12:36;6.63;;;2.97;;
55210;SDS011;41082;52.822;6.666;2023-05-20T01:15:12;6.43;;;3.25;;
55210;SDS011;41082;52.822;6.666;2023-05-20T01:17:42;4.97;;;3.20;;
55210;SDS011;41082;52.822;6.666;2023-05-20T01:20:10;8.40;;;2.80;;
55210;SDS011;41082;52.822;6.666;2023-05-20T01:22:38;9.50;;;3.33;;
55210;SDS011;41082;52.822;6.666;2023-05-20T01:25:20;9.57;;;3.22;;
55210;SDS011;41082;52.822;6.666;2023-05-20T01:27:49;5.20;;;2.85;;
55210;SDS011;41082;52.822;6.666;2023-05-20T01:30:16;8.40;;;2.88;;
55210;SDS011;41082;52.822;6.666;2023-05-20T01:32:47;8.13;;;3.53;;
55210;SDS011;41082;52.822;6.666;2023-05-20T01:35:15;7.20;;;3.30;;
55210;SDS011;41082;52.822;6.666;2023-05-20T01:37:41;5.10;;;2.40;;
55210;SDS011;41082;52.822;6.666;2023-05-20T01:40:07;7.32;;;2.90;;
55210;SDS011;41082;52.822;6.666;2023-05-20T01:42:34;10.18;;;2.92;;
55210;SDS011;41082;52.822;6.666;2023-05-20T01:45:01;9.43;;;3.33;;
55210;SDS011;41082;52.822;6.666;2023-05-20T01:47:27;9.07;;;2.85;;
55210;SDS011;41082;52.822;6.666;2023-05-20T01:49:53;9.98;;;2.92;;
55210;SDS011;41082;52.822;6.666;2023-05-20T01:52:19;7.07;;;2.92;;
55210;SDS011;41082;52.822;6.666;2023-05-20T01:54:45;7.78;;;3.00;;
55210;SDS011;41082;52.822;6.666;2023-05-20T01:57:16;7.00;;;3.10;;
55210;SDS011;41082;52.822;6.666;2023-05-20T01:59:45;6.38;;;3.25;;
55210;SDS011;41082;52.822;6.666;2023-05-20T02:02:11;6.57;;;2.78;;
55210;SDS011;41082;52.822;6.666;2023-05-20T02:04:37;8.35;;;2.85;;
55210;SDS011;41082;52.822;6.666;2023-05-20T02:07:03;6.63;;;2.63;;
55210;SDS011;41082;52.822;6.666;2023-05-20T02:09:28;6.65;;;2.70;;
55210;SDS011;41082;52.822;6.666;2023-05-20T02:11:54;6.88;;;3.25;;
55210;SDS011;41082;52.822;6.666;2023-05-20T02:14:19;9.55;;;3.25;;
55210;SDS011;41082;52.822;6.666;2023-05-20T02:16:45;6.97;;;3.53;;
55210;SDS011;41082;52.822;6.666;2023-05-20T02:19:11;6.72;;;2.33;;
55210;SDS011;41082;52.822;6.666;2023-05-20T02:21:40;6.07;;;2.70;;
55210;SDS011;41082;52.822;6.666;2023-05-20T02:24:06;7.20;;;3.13;;
55210;SDS011;41082;52.822;6.666;2023-05-20T02:26:33;6.13;;;2.42;;
55210;SDS011;41082;52.822;6.666;2023-05-20T02:28:59;7.20;;;2.67;;
55210;SDS011;41082;52.822;6.666;2023-05-20T02:31:24;6.80;;;2.63;;
55210;SDS011;41082;52.822;6.666;2023-05-20T02:33:50;4.82;;;2.45;;
55210;SDS011;41082;52.822;6.666;2023-05-20T02:36:16;8.77;;;3.05;;
55210;SDS011;41082;52.822;6.666;2023-05-20T02:38:42;6.40;;;2.40;;
55210;SDS011;41082;52.822;6.666;2023-05-20T02:41:08;4.65;;;1.92;;
55210;SDS011;41082;52.822;6.666;2023-05-20T02:43:33;6.18;;;2.45;;
55210;SDS011;41082;52.822;6.666;2023-05-20T02:46:00;5.93;;;2.40;;
55210;SDS011;41082;52.822;6.666;2023-05-20T02:48:26;4.35;;;2.45;;
55210;SDS011;41082;52.822;6.666;2023-05-20T02:50:52;3.72;;;2.08;;
55210;SDS011;41082;52.822;6.666;2023-05-20T02:53:18;5.65;;;2.47;;
55210;SDS011;41082;52.822;6.666;2023-05-20T02:55:44;5.90;;;2.63;;
55210;SDS011;41082;52.822;6.666;2023-05-20T02:58:14;4.90;;;2.38;;
55210;SDS011;41082;52.822;6.666;2023-05-20T03:00:39;7.07;;;3.30;;
55210;SDS011;41082;52.822;6.666;2023-05-20T03:03:05;4.97;;;2.58;;
55210;SDS011;41082;52.822;6.666;2023-05-20T03:05:32;10.05;;;2.55;;
55210;SDS011;41082;52.822;6.666;2023-05-20T03:08:01;6.40;;;2.33;;
55210;SDS011;41082;52.822;6.666;2023-05-20T03:10:30;5.38;;;2.33;;
55210;SDS011;41082;52.822;6.666;2023-05-20T03:12:56;4.22;;;2.40;;
55210;SDS011;41082;52.822;6.666;2023-05-20T03:15:21;6.57;;;2.60;;
55210;SDS011;41082;52.822;6.666;2023-05-20T03:17:47;4.07;;;2.13;;
55210;SDS011;41082;52.822;6.666;2023-05-20T03:20:12;5.35;;;2.60;;
55210;SDS011;41082;52.822;6.666;2023-05-20T03:22:39;6.72;;;2.92;;
55210;SDS011;41082;52.822;6.666;2023-05-20T03:25:04;7.60;;;2.28;;
55210;SDS011;41082;52.822;6.666;2023-05-20T03:27:30;8.25;;;2.63;;
55210;SDS011;41082;52.822;6.666;2023-05-20T03:29:56;7.95;;;2.35;;
55210;SDS011;41082;52.822;6.666;2023-05-20T03:32:21;4.00;;;2.08;;
55210;SDS011;41082;52.822;6.666;2023-05-20T03:34:47;8.15;;;2.00;;
55210;SDS011;41082;52.822;6.666;2023-05-20T03:37:12;7.40;;;2.35;;
55210;SDS011;41082;52.822;6.666;2023-05-20T03:39:38;7.75;;;2.30;;
55210;SDS011;41082;52.822;6.666;2023-05-20T03:42:04;4.65;;;2.00;;
55210;SDS011;41082;52.822;6.666;2023-05-20T03:44:29;7.90;;;2.92;;
55210;SDS011;41082;52.822;6.666;2023-05-20T03:46:55;6.60;;;2.47;;
55210;SDS011;41082;52.822;6.666;2023-05-20T03:49:21;4.50;;;1.95;;
55210;SDS011;41082;52.822;6.666;2023-05-20T03:51:46;4.68;;;1.88;;
55210;SDS011;41082;52.822;6.666;2023-05-20T03:54:12;5.63;;;2.50;;
55210;SDS011;41082;52.822;6.666;2023-05-20T03:56:37;5.75;;;2.10;;
55210;SDS011;41082;52.822;6.666;2023-05-20T03:59:03;7.50;;;2.53;;
55210;SDS011;41082;52.822;6.666;2023-05-20T04:01:29;5.65;;;1.98;;
55210;SDS011;41082;52.822;6.666;2023-05-20T04:03:56;7.38;;;1.85;;
55210;SDS011;41082;52.822;6.666;2023-05-20T04:06:21;5.93;;;2.08;;
55210;SDS011;41082;52.822;6.666;2023-05-20T04:08:47;5.13;;;1.80;;
55210;SDS011;41082;52.822;6.666;2023-05-20T04:11:12;5.70;;;1.60;;
55210;SDS011;41082;52.822;6.666;2023-05-20T04:13:38;5.22;;;1.88;;
55210;SDS011;41082;52.822;6.666;2023-05-20T04:16:03;3.60;;;1.95;;
55210;SDS011;41082;52.822;6.666;2023-05-20T04:18:29;3.95;;;1.83;;
55210;SDS011;41082;52.822;6.666;2023-05-20T04:20:55;6.90;;;2.20;;
55210;SDS011;41082;52.822;6.666;2023-05-20T04:23:21;10.68;;;2.92;;
55210;SDS011;41082;52.822;6.666;2023-05-20T04:25:47;5.05;;;1.40;;
55210;SDS011;41082;52.822;6.666;2023-05-20T04:28:13;4.95;;;1.40;;
55210;SDS011;41082;52.822;6.666;2023-05-20T04:30:40;4.07;;;1.98;;
55210;SDS011;41082;52.822;6.666;2023-05-20T04:33:06;3.25;;;1.55;;
55210;SDS011;41082;52.822;6.666;2023-05-20T04:35:32;5.22;;;2.05;;
55210;SDS011;41082;52.822;6.666;2023-05-20T04:37:59;5.00;;;1.52;;
55210;SDS011;41082;52.822;6.666;2023-05-20T04:40:25;4.78;;;1.85;;
55210;SDS011;41082;52.822;6.666;2023-05-20T04:42:51;5.63;;;1.35;;
55210;SDS011;41082;52.822;6.666;2023-05-20T04:45:17;3.83;;;1.63;;
55210;SDS011;41082;52.822;6.666;2023-05-20T04:47:42;5.93;;;1.38;;
55210;SDS011;41082;52.822;6.666;2023-05-20T04:50:10;3.58;;;1.40;;
55210;SDS011;41082;52.822;6.666;2023-05-20T04:52:37;3.25;;;1.33;;
55210;SDS011;41082;52.822;6.666;2023-05-20T04:55:06;4.38;;;1.50;;
55210;SDS011;41082;52.822;6.666;2023-05-20T04:57:38;2.97;;;1.10;;
55210;SDS011;41082;52.822;6.666;2023-05-20T05:00:05;3.58;;;1.15;;
55210;SDS011;41082;52.822;6.666;2023-05-20T05:02:33;3.25;;;1.35;;
55210;SDS011;41082;52.822;6.666;2023-05-20T05:04:59;2.40;;;1.33;;
55210;SDS011;41082;52.822;6.666;2023-05-20T05:07:25;3.85;;;1.15;;
55210;SDS011;41082;52.822;6.666;2023-05-20T05:09:50;2.55;;;1.20;;
55210;SDS011;41082;52.822;6.666;2023-05-20T05:12:16;3.10;;;1.00;;
55210;SDS011;41082;52.822;6.666;2023-05-20T05:14:41;4.22;;;1.00;;
55210;SDS011;41082;52.822;6.666;2023-05-20T05:17:07;2.85;;;0.90;;
55210;SDS011;41082;52.822;6.666;2023-05-20T05:19:32;2.95;;;1.05;;
55210;SDS011;41082;52.822;6.666;2023-05-20T05:21:58;2.78;;;0.93;;
55210;SDS011;41082;52.822;6.666;2023-05-20T05:24:23;5.03;;;0.88;;
55210;SDS011;41082;52.822;6.666;2023-05-20T05:26:52;3.80;;;0.82;;
55210;SDS011;41082;52.822;6.666;2023-05-20T05:29:18;4.65;;;1.33;;
55210;SDS011;41082;52.822;6.666;2023-05-20T05:31:44;3.67;;;0.80;;
55210;SDS011;41082;52.822;6.666;2023-05-20T05:34:10;2.35;;;0.90;;
55210;SDS011;41082;52.822;6.666;2023-05-20T05:36:37;2.00;;;0.80;;
55210;SDS011;41082;52.822;6.666;2023-05-20T05:39:03;4.88;;;1.48;;
55210;SDS011;41082;52.822;6.666;2023-05-20T05:41:29;1.88;;;0.68;;
55210;SDS011;41082;52.822;6.666;2023-05-20T05:43:55;2.83;;;0.55;;
55210;SDS011;41082;52.822;6.666;2023-05-20T05:46:20;5.18;;;0.85;;
55210;SDS011;41082;52.822;6.666;2023-05-20T05:48:46;2.75;;;0.80;;
55210;SDS011;41082;52.822;6.666;2023-05-20T05:51:14;4.13;;;0.65;;
55210;SDS011;41082;52.822;6.666;2023-05-20T05:53:40;3.15;;;0.73;;
55210;SDS011;41082;52.822;6.666;2023-05-20T05:56:05;3.38;;;0.77;;
55210;SDS011;41082;52.822;6.666;2023-05-20T05:58:31;1.42;;;0.73;;
55210;SDS011;41082;52.822;6.666;2023-05-20T06:00:57;3.78;;;0.85;;
55210;SDS011;41082;52.822;6.666;2023-05-20T06:03:23;2.47;;;0.60;;
55210;SDS011;41082;52.822;6.666;2023-05-20T06:05:49;2.33;;;0.60;;
55210;SDS011;41082;52.822;6.666;2023-05-20T06:08:14;2.92;;;0.60;;
55210;SDS011;41082;52.822;6.666;2023-05-20T06:10:40;1.85;;;0.60;;
55210;SDS011;41082;52.822;6.666;2023-05-20T06:13:06;1.85;;;0.45;;
55210;SDS011;41082;52.822;6.666;2023-05-20T06:15:31;1.88;;;0.77;;
55210;SDS011;41082;52.822;6.666;2023-05-20T06:17:57;1.85;;;0.60;;
55210;SDS011;41082;52.822;6.666;2023-05-20T06:20:22;3.63;;;0.80;;
55210;SDS011;41082;52.822;6.666;2023-05-20T06:22:48;1.88;;;0.77;;
55210;SDS011;41082;52.822;6.666;2023-05-20T06:25:13;1.98;;;0.70;;
55210;SDS011;41082;52.822;6.666;2023-05-20T06:27:39;1.35;;;0.70;;
55210;SDS011;41082;52.822;6.666;2023-05-20T06:30:05;1.77;;;0.73;;
55210;SDS011;41082;52.822;6.666;2023-05-20T06:32:31;4.43;;;0.70;;
55210;SDS011;41082;52.822;6.666;2023-05-20T06:34:56;3.22;;;0.63;;
55210;SDS011;41082;52.822;6.666;2023-05-20T06:37:22;3.70;;;0.52;;
55210;SDS011;41082;52.822;6.666;2023-05-20T06:39:48;3.78;;;0.45;;
55210;SDS011;41082;52.822;6.666;2023-05-20T06:42:17;2.13;;;0.70;;
55210;SDS011;41082;52.822;6.666;2023-05-20T06:44:45;1.63;;;0.60;;
55210;SDS011;41082;52.822;6.666;2023-05-20T06:47:12;2.40;;;0.52;;
55210;SDS011;41082;52.822;6.666;2023-05-20T06:49:39;1.67;;;0.65;;
55210;SDS011;41082;52.822;6.666;2023-05-20T06:52:06;3.38;;;0.50;;
55210;SDS011;41082;52.822;6.666;2023-05-20T06:54:31;3.05;;;0.60;;
55210;SDS011;41082;52.822;6.666;2023-05-20T06:56:59;1.40;;;0.77;;
55210;SDS011;41082;52.822;6.666;2023-05-20T06:59:25;3.42;;;0.80;;
55210;SDS011;41082;52.822;6.666;2023-05-20T07:01:51;3.90;;;0.75;;
55210;SDS011;41082;52.822;6.666;2023-05-20T07:04:16;3.20;;;0.98;;
55210;SDS011;41082;52.822;6.666;2023-05-20T07:06:42;2.85;;;0.80;;
55210;SDS011;41082;52.822;6.666;2023-05-20T07:09:07;2.00;;;0.63;;
55210;SDS011;41082;52.822;6.666;2023-05-20T07:11:33;2.13;;;0.70;;
55210;SDS011;41082;52.822;6.666;2023-05-20T07:13:59;1.25;;;0.50;;
55210;SDS011;41082;52.822;6.666;2023-05-20T07:16:24;6.20;;;0.70;;
55210;SDS011;41082;52.822;6.666;2023-05-20T07:18:50;1.55;;;0.63;;
55210;SDS011;41082;52.822;6.666;2023-05-20T07:21:15;3.90;;;1.00;;
55210;SDS011;41082;52.822;6.666;2023-05-20T07:23:41;3.05;;;0.80;;
55210;SDS011;41082;52.822;6.666;2023-05-20T07:26:07;2.95;;;0.70;;
55210;SDS011;41082;52.822;6.666;2023-05-20T07:28:32;1.48;;;0.70;;
55210;SDS011;41082;52.822;6.666;2023-05-20T07:30:59;1.88;;;0.68;;
55210;SDS011;41082;52.822;6.666;2023-05-20T07:33:25;5.50;;;1.10;;
55210;SDS011;41082;52.822;6.666;2023-05-20T07:35:50;3.08;;;0.90;;
55210;SDS011;41082;52.822;6.666;2023-05-20T07:38:18;5.88;;;0.90;;
55210;SDS011;41082;52.822;6.666;2023-05-20T07:40:44;1.38;;;0.75;;
55210;SDS011;41082;52.822;6.666;2023-05-20T07:43:09;3.30;;;0.90;;
55210;SDS011;41082;52.822;6.666;2023-05-20T07:45:35;2.15;;;0.90;;
55210;SDS011;41082;52.822;6.666;2023-05-20T07:48:01;3.58;;;1.00;;
55210;SDS011;41082;52.822;6.666;2023-05-20T07:50:27;2.75;;;0.70;;
55210;SDS011;41082;52.822;6.666;2023-05-20T07:52:53;5.15;;;1.10;;
55210;SDS011;41082;52.822;6.666;2023-05-20T07:55:19;3.42;;;0.88;;
55210;SDS011;41082;52.822;6.666;2023-05-20T07:57:44;2.35;;;0.95;;
55210;SDS011;41082;52.822;6.666;2023-05-20T08:00:10;3.22;;;0.85;;
55210;SDS011;41082;52.822;6.666;2023-05-20T08:02:37;2.15;;;0.95;;
55210;SDS011;41082;52.822;6.666;2023-05-20T08:05:03;8.48;;;1.00;;
55210;SDS011;41082;52.822;6.666;2023-05-20T08:07:29;3.78;;;1.25;;
55210;SDS011;41082;52.822;6.666;2023-05-20T08:09:55;2.35;;;0.90;;
55210;SDS011;41082;52.822;6.666;2023-05-20T08:12:21;3.13;;;1.00;;
55210;SDS011;41082;52.822;6.666;2023-05-20T08:14:47;2.70;;;1.00;;
55210;SDS011;41082;52.822;6.666;2023-05-20T08:17:12;5.13;;;0.80;;
55210;SDS011;41082;52.822;6.666;2023-05-20T08:19:38;1.50;;;0.88;;
55210;SDS011;41082;52.822;6.666;2023-05-20T08:22:04;2.92;;;0.85;;
55210;SDS011;41082;52.822;6.666;2023-05-20T08:24:30;3.15;;;0.77;;
55210;SDS011;41082;52.822;6.666;2023-05-20T08:26:56;3.17;;;1.10;;
55210;SDS011;41082;52.822;6.666;2023-05-20T08:29:21;4.57;;;1.00;;
55210;SDS011;41082;52.822;6.666;2023-05-20T08:31:47;3.38;;;0.95;;
55210;SDS011;41082;52.822;6.666;2023-05-20T08:34:12;4.53;;;1.02;;
55210;SDS011;41082;52.822;6.666;2023-05-20T08:36:38;2.45;;;1.08;;
55210;SDS011;41082;52.822;6.666;2023-05-20T08:39:04;4.13;;;1.10;;
55210;SDS011;41082;52.822;6.666;2023-05-20T08:41:29;3.25;;;1.13;;
55210;SDS011;41082;52.822;6.666;2023-05-20T08:43:55;2.83;;;0.98;;
55210;SDS011;41082;52.822;6.666;2023-05-20T08:46:23;1.85;;;1.15;;
55210;SDS011;41082;52.822;6.666;2023-05-20T08:48:49;2.67;;;1.00;;
55210;SDS011;41082;52.822;6.666;2023-05-20T08:51:15;4.43;;;1.23;;
55210;SDS011;41082;52.822;6.666;2023-05-20T08:53:44;2.75;;;0.85;;
55210;SDS011;41082;52.822;6.666;2023-05-20T08:56:10;2.15;;;0.82;;
55210;SDS011;41082;52.822;6.666;2023-05-20T08:58:37;3.33;;;0.88;;
55210;SDS011;41082;52.822;6.666;2023-05-20T09:01:03;2.10;;;1.00;;
55210;SDS011;41082;52.822;6.666;2023-05-20T09:03:29;4.15;;;1.23;;
55210;SDS011;41082;52.822;6.666;2023-05-20T09:06:05;5.03;;;1.20;;
55210;SDS011;41082;52.822;6.666;2023-05-20T09:08:32;2.47;;;0.70;;
55210;SDS011;41082;52.822;6.666;2023-05-20T09:10:59;3.53;;;0.90;;
55210;SDS011;41082;52.822;6.666;2023-05-20T09:13:25;4.65;;;1.00;;
55210;SDS011;41082;52.822;6.666;2023-05-20T09:15:51;2.38;;;1.05;;
55210;SDS011;41082;52.822;6.666;2023-05-20T09:18:17;1.83;;;0.82;;
55210;SDS011;41082;52.822;6.666;2023-05-20T09:20:45;2.42;;;1.00;;
55210;SDS011;41082;52.822;6.666;2023-05-20T09:23:11;5.85;;;1.23;;
55210;SDS011;41082;52.822;6.666;2023-05-20T09:25:37;2.72;;;0.93;;
55210;SDS011;41082;52.822;6.666;2023-05-20T09:28:04;4.13;;;0.88;;
55210;SDS011;41082;52.822;6.666;2023-05-20T09:30:31;4.93;;;0.70;;
55210;SDS011;41082;52.822;6.666;2023-05-20T09:32:58;4.85;;;1.45;;
55210;SDS011;41082;52.822;6.666;2023-05-20T09:35:25;6.13;;;0.93;;
55210;SDS011;41082;52.822;6.666;2023-05-20T09:37:52;3.05;;;1.08;;
55210;SDS011;41082;52.822;6.666;2023-05-20T09:40:23;5.28;;;0.80;;
55210;SDS011;41082;52.822;6.666;2023-05-20T09:45:21;3.70;;;0.77;;
55210;SDS011;41082;52.822;6.666;2023-05-20T09:47:51;1.98;;;0.80;;
55210;SDS011;41082;52.822;6.666;2023-05-20T09:50:18;2.83;;;1.05;;
55210;SDS011;41082;52.822;6.666;2023-05-20T09:52:46;2.58;;;0.90;;
55210;SDS011;41082;52.822;6.666;2023-05-20T09:55:15;1.92;;;0.80;;
55210;SDS011;41082;52.822;6.666;2023-05-20T09:57:42;5.53;;;0.80;;
55210;SDS011;41082;52.822;6.666;2023-05-20T10:00:08;3.67;;;0.98;;
55210;SDS011;41082;52.822;6.666;2023-05-20T10:02:34;7.25;;;0.93;;
55210;SDS011;41082;52.822;6.666;2023-05-20T10:05:02;1.83;;;0.77;;
55210;SDS011;41082;52.822;6.666;2023-05-20T10:21:13;3.22;;;0.80;;
55210;SDS011;41082;52.822;6.666;2023-05-20T10:23:43;4.38;;;0.77;;
55210;SDS011;41082;52.822;6.666;2023-05-20T10:26:08;5.88;;;1.08;;
55210;SDS011;41082;52.822;6.666;2023-05-20T10:28:35;3.80;;;0.73;;
55210;SDS011;41082;52.822;6.666;2023-05-20T10:31:01;3.45;;;0.73;;
55210;SDS011;41082;52.822;6.666;2023-05-20T10:33:42;4.43;;;0.90;;
55210;SDS011;41082;52.822;6.666;2023-05-20T10:36:09;3.60;;;0.80;;
55210;SDS011;41082;52.822;6.666;2023-05-20T10:38:34;3.53;;;0.85;;
55210;SDS011;41082;52.822;6.666;2023-05-20T10:41:07;2.78;;;0.60;;
55210;SDS011;41082;52.822;6.666;2023-05-20T10:43:35;1.88;;;0.47;;
55210;SDS011;41082;52.822;6.666;2023-05-20T10:46:00;1.15;;;0.55;;
55210;SDS011;41082;52.822;6.666;2023-05-20T10:48:30;4.53;;;0.88;;
55210;SDS011;41082;52.822;6.666;2023-05-20T10:50:57;4.43;;;0.70;;
55210;SDS011;41082;52.822;6.666;2023-05-20T10:53:39;2.65;;;0.75;;
55210;SDS011;41082;52.822;6.666;2023-05-20T10:56:15;3.42;;;0.70;;
55210;SDS011;41082;52.822;6.666;2023-05-20T10:58:45;5.32;;;0.73;;
55210;SDS011;41082;52.822;6.666;2023-05-20T11:01:12;2.92;;;0.60;;
55210;SDS011;41082;52.822;6.666;2023-05-20T11:03:42;3.85;;;0.70;;
55210;SDS011;41082;52.822;6.666;2023-05-20T11:06:17;4.25;;;0.98;;
55210;SDS011;41082;52.822;6.666;2023-05-20T11:08:43;4.05;;;0.60;;
55210;SDS011;41082;52.822;6.666;2023-05-20T11:11:10;4.38;;;0.95;;
55210;SDS011;41082;52.822;6.666;2023-05-20T11:13:37;6.13;;;0.90;;
55210;SDS011;41082;52.822;6.666;2023-05-20T11:16:03;3.45;;;0.95;;
55210;SDS011;41082;52.822;6.666;2023-05-20T11:18:29;4.13;;;0.60;;
55210;SDS011;41082;52.822;6.666;2023-05-20T11:20:56;2.63;;;0.93;;
55210;SDS011;41082;52.822;6.666;2023-05-20T11:23:22;2.80;;;0.75;;
55210;SDS011;41082;52.822;6.666;2023-05-20T11:25:51;2.42;;;0.60;;
55210;SDS011;41082;52.822;6.666;2023-05-20T11:28:20;1.65;;;0.40;;
55210;SDS011;41082;52.822;6.666;2023-05-20T11:30:47;4.50;;;0.70;;
55210;SDS011;41082;52.822;6.666;2023-05-20T11:33:14;2.10;;;0.70;;
55210;SDS011;41082;52.822;6.666;2023-05-20T11:35:44;4.35;;;0.93;;
55210;SDS011;41082;52.822;6.666;2023-05-20T11:38:11;3.20;;;0.73;;
55210;SDS011;41082;52.822;6.666;2023-05-20T11:40:37;6.53;;;1.17;;
55210;SDS011;41082;52.822;6.666;2023-05-20T11:43:17;4.15;;;0.70;;
55210;SDS011;41082;52.822;6.666;2023-05-20T11:45:44;3.67;;;0.60;;
55210;SDS011;41082;52.822;6.666;2023-05-20T11:48:11;2.72;;;0.80;;
55210;SDS011;41082;52.822;6.666;2023-05-20T11:50:41;5.38;;;0.63;;
55210;SDS011;41082;52.822;6.666;2023-05-20T11:53:09;3.42;;;0.60;;
55210;SDS011;41082;52.822;6.666;2023-05-20T11:58:26;2.58;;;0.80;;
55210;SDS011;41082;52.822;6.666;2023-05-20T12:00:54;3.90;;;0.85;;
55210;SDS011;41082;52.822;6.666;2023-05-20T12:03:19;1.75;;;0.70;;
55210;SDS011;41082;52.822;6.666;2023-05-20T12:05:45;6.80;;;1.02;;
55210;SDS011;41082;52.822;6.666;2023-05-20T12:08:12;6.90;;;1.17;;
55210;SDS011;41082;52.822;6.666;2023-05-20T12:10:38;3.65;;;0.90;;
55210;SDS011;41082;52.822;6.666;2023-05-20T12:13:04;2.47;;;0.57;;
55210;SDS011;41082;52.822;6.666;2023-05-20T12:15:33;3.30;;;0.68;;
55210;SDS011;41082;52.822;6.666;2023-05-20T12:18:02;4.22;;;0.63;;
55210;SDS011;41082;52.822;6.666;2023-05-20T12:20:28;3.10;;;1.13;;
55210;SDS011;41082;52.822;6.666;2023-05-20T12:22:54;2.50;;;0.60;;
55210;SDS011;41082;52.822;6.666;2023-05-20T12:25:20;4.28;;;1.15;;
55210;SDS011;41082;52.822;6.666;2023-05-20T12:27:46;6.75;;;0.90;;
55210;SDS011;41082;52.822;6.666;2023-05-20T12:30:17;2.78;;;0.50;;
55210;SDS011;41082;52.822;6.666;2023-05-20T12:32:46;2.47;;;0.75;;
55210;SDS011;41082;52.822;6.666;2023-05-20T12:35:13;3.75;;;0.73;;
55210;SDS011;41082;52.822;6.666;2023-05-20T12:37:39;2.47;;;0.60;;
55210;SDS011;41082;52.822;6.666;2023-05-20T12:40:07;2.53;;;0.60;;
55210;SDS011;41082;52.822;6.666;2023-05-20T12:42:37;2.85;;;0.40;;
55210;SDS011;41082;52.822;6.666;2023-05-20T12:45:04;5.18;;;0.68;;
55210;SDS011;41082;52.822;6.666;2023-05-20T12:47:31;4.28;;;0.60;;
55210;SDS011;41082;52.822;6.666;2023-05-20T12:49:57;4.72;;;0.70;;
55210;SDS011;41082;52.822;6.666;2023-05-20T12:52:22;5.22;;;0.85;;
55210;SDS011;41082;52.822;6.666;2023-05-20T12:54:48;1.65;;;0.63;;
55210;SDS011;41082;52.822;6.666;2023-05-20T12:57:14;2.35;;;0.40;;
55210;SDS011;41082;52.822;6.666;2023-05-20T12:59:40;3.97;;;0.70;;
55210;SDS011;41082;52.822;6.666;2023-05-20T13:02:06;3.33;;;0.70;;
55210;SDS011;41082;52.822;6.666;2023-05-20T13:04:31;3.55;;;0.70;;
55210;SDS011;41082;52.822;6.666;2023-05-20T13:06:57;2.95;;;0.50;;
55210;SDS011;41082;52.822;6.666;2023-05-20T13:09:22;2.95;;;0.52;;
55210;SDS011;41082;52.822;6.666;2023-05-20T13:11:48;3.55;;;0.50;;
55210;SDS011;41082;52.822;6.666;2023-05-20T13:14:14;1.70;;;0.52;;
55210;SDS011;41082;52.822;6.666;2023-05-20T13:16:39;5.07;;;0.50;;
55210;SDS011;41082;52.822;6.666;2023-05-20T13:19:05;1.70;;;0.50;;
55210;SDS011;41082;52.822;6.666;2023-05-20T13:21:31;4.80;;;0.80;;
55210;SDS011;41082;52.822;6.666;2023-05-20T13:23:56;3.42;;;0.60;;
55210;SDS011;41082;52.822;6.666;2023-05-20T13:26:22;3.38;;;0.88;;
55210;SDS011;41082;52.822;6.666;2023-05-20T13:28:48;2.63;;;0.60;;
55210;SDS011;41082;52.822;6.666;2023-05-20T13:31:14;3.60;;;0.70;;
55210;SDS011;41082;52.822;6.666;2023-05-20T13:33:39;3.25;;;0.60;;
55210;SDS011;41082;52.822;6.666;2023-05-20T13:36:05;3.60;;;0.63;;
55210;SDS011;41082;52.822;6.666;2023-05-20T13:38:31;5.20;;;0.65;;
55210;SDS011;41082;52.822;6.666;2023-05-20T13:40:56;4.40;;;0.90;;
55210;SDS011;41082;52.822;6.666;2023-05-20T13:43:24;7.80;;;0.88;;
55210;SDS011;41082;52.822;6.666;2023-05-20T13:45:50;4.43;;;0.90;;
55210;SDS011;41082;52.822;6.666;2023-05-20T13:48:16;5.00;;;0.50;;
55210;SDS011;41082;52.822;6.666;2023-05-20T13:50:42;1.88;;;0.47;;
55210;SDS011;41082;52.822;6.666;2023-05-20T13:53:08;2.05;;;0.50;;
55210;SDS011;41082;52.822;6.666;2023-05-20T13:55:37;2.17;;;0.68;;
55210;SDS011;41082;52.822;6.666;2023-05-20T13:58:03;4.13;;;0.70;;
55210;SDS011;41082;52.822;6.666;2023-05-20T14:00:30;3.40;;;0.80;;
55210;SDS011;41082;52.822;6.666;2023-05-20T14:02:56;2.53;;;0.70;;
55210;SDS011;41082;52.822;6.666;2023-05-20T14:05:21;2.95;;;0.38;;
55210;SDS011;41082;52.822;6.666;2023-05-20T14:07:47;5.47;;;0.70;;
55210;SDS011;41082;52.822;6.666;2023-05-20T14:10:13;3.83;;;0.70;;
55210;SDS011;41082;52.822;6.666;2023-05-20T14:12:38;8.63;;;1.00;;
55210;SDS011;41082;52.822;6.666;2023-05-20T14:15:05;2.30;;;0.60;;
55210;SDS011;41082;52.822;6.666;2023-05-20T14:17:31;7.38;;;0.68;;
55210;SDS011;41082;52.822;6.666;2023-05-20T14:19:56;2.60;;;0.70;;
55210;SDS011;41082;52.822;6.666;2023-05-20T14:22:22;5.03;;;0.68;;
55210;SDS011;41082;52.822;6.666;2023-05-20T14:24:47;2.92;;;0.70;;
55210;SDS011;41082;52.822;6.666;2023-05-20T14:27:13;2.67;;;0.70;;
55210;SDS011;41082;52.822;6.666;2023-05-20T14:29:39;1.85;;;0.60;;
55210;SDS011;41082;52.822;6.666;2023-05-20T14:32:04;2.78;;;0.80;;
55210;SDS011;41082;52.822;6.666;2023-05-20T14:34:30;2.22;;;0.98;;
55210;SDS011;41082;52.822;6.666;2023-05-20T14:36:56;3.40;;;0.47;;
55210;SDS011;41082;52.822;6.666;2023-05-20T14:39:22;2.67;;;0.80;;
55210;SDS011;41082;52.822;6.666;2023-05-20T14:41:47;3.15;;;0.50;;
55210;SDS011;41082;52.822;6.666;2023-05-20T14:44:13;2.50;;;0.60;;
55210;SDS011;41082;52.822;6.666;2023-05-20T14:46:38;1.27;;;0.43;;
55210;SDS011;41082;52.822;6.666;2023-05-20T14:49:04;6.82;;;0.57;;
55210;SDS011;41082;52.822;6.666;2023-05-20T14:51:30;3.22;;;0.63;;
55210;SDS011;41082;52.822;6.666;2023-05-20T14:53:55;5.40;;;0.77;;
55210;SDS011;41082;52.822;6.666;2023-05-20T14:56:21;4.88;;;0.90;;
55210;SDS011;41082;52.822;6.666;2023-05-20T14:58:47;5.43;;;0.80;;
55210;SDS011;41082;52.822;6.666;2023-05-20T15:01:12;4.07;;;0.60;;
55210;SDS011;41082;52.822;6.666;2023-05-20T15:03:38;3.92;;;0.75;;